Station: Hindmarsh Island  

  Atmospheric Gas Attenuation - ITU Rec 676-11   ----------------- dB/100km -----------------
Date Time Temp RH % AH g/m3 Dew Point Wind Direction Speed kph Gust kph Barometer mB Rainfall Since 9am 24GHz 47GHz 76GHz 122GHz 134GHz 241GHz
03/05 15:40 15.5 78 10.31 11.7 28 35 1008.8 0.4 23.2 28.0 45.7 120.2 118.6 409.4
03/05 15:30 16.2 72 9.93 11.2 30 43 1008.7 0.4 22.3 27.2 43.7 114.9 112.4 387.9
03/05 15:20 16.7 71 10.09 11.4 28 33 1008.7 0.4 22.6 27.3 44.1 115.9 113.8 392.8
03/05 15:10 16.4 78 10.89 12.6 28 39 1008.7 0.4 24.4 28.7 47.5 125.2 125.1 432.3
03/05 15:00 15.6 84 11.17 12.9 24 33 1008.8 0.4 25.0 29.5 49.2 129.7 130.4 450.5
03/05 14:50 14.9 85 10.83 12.4 28 33 1008.9 0.4 24.3 29.1 48.2 127.0 126.8 437.9
03/05 14:40 14.8 83 10.51 11.9 32 43 1008.9 0.2 23.6 28.6 46.9 123.5 122.5 422.8
03/05 14:30 15 82 10.51 12 28 44 1008.8 0 23.6 28.5 46.8 123.2 122.1 421.7
03/05 14:20 15.5 77 10.18 11.5 32 43 1008.8 0 22.9 27.8 45.1 118.7 116.8 403.2
03/05 14:10 17.2 63 9.23 10.1 30 43 1008.4 0 20.8 25.7 40.4 106.1 101.8 351.0
03/05 14:00 17.6 60 9 9.8 37 52 1008.3 0 20.3 25.3 39.3 103.1 98.4 338.9
03/05 13:50 18.1 58 8.96 9.7 39 44 1008.3 0 20.2 25.1 38.9 102.1 97.2 335.1
03/05 13:40 17.7 62 9.35 10.3 39 46 1008.6 0 21.0 25.8 40.6 106.7 102.7 354.2
03/05 13:30 16.5 66 9.27 10.1 35 52 1008.8 0 20.9 26.0 40.9 107.5 103.3 356.1
03/05 13:20 16.7 62 8.81 9.4 41 52 1008.7 0 19.9 25.2 39.0 102.4 97.1 334.4
03/05 13:10 17.5 57 8.5 8.9 44 56 1008.6 0 19.2 24.5 37.4 98.2 92.2 317.4
03/05 13:00 17.7 60 9.05 9.8 33 46 1008.7 0 20.4 25.3 39.4 103.6 98.9 340.8
03/05 12:50 17.6 63 9.45 10.5 28 35 1008.8 0 21.2 26.0 41.0 107.9 104.2 359.2
03/05 12:40 17 65 9.4 10.4 35 44 1009 0 21.1 26.1 41.2 108.2 104.3 359.7
03/05 12:30 16.7 61 8.67 9.1 41 61 1009 0 19.6 25.0 38.5 101.0 95.4 328.3
03/05 12:20 17 61 8.83 9.4 35 46 1009.1 0 19.9 25.2 38.9 102.3 97.0 334.2
03/05 12:10 16.9 63 9.06 9.8 39 44 1009.1 0 20.4 25.6 39.9 104.8 100.1 344.9
03/05 12:00 17.1 58 8.44 8.8 37 54 1009.1 0 19.1 24.6 37.4 98.1 92.0 316.5
03/05 11:50 17.3 60 8.84 9.5 32 41 1009.3 0 19.9 25.1 38.8 102.0 96.8 333.4
03/05 11:40 17.3 57 8.4 8.7 46 52 1009.2 0 19.0 24.4 37.2 97.5 91.3 314.0
03/05 11:30 17 60 8.68 9.2 39 54 1009.2 0 19.6 25.0 38.4 100.7 95.1 327.5
03/05 11:20 16.6 65 9.18 10 35 46 1009.3 0 20.7 25.9 40.5 106.4 102.0 351.7
03/05 11:10 16.1 70 9.59 10.6 30 35 1009.5 0 21.6 26.7 42.4 111.5 108.1 372.8
03/05 11:00 15.3 70 9.14 9.9 35 54 1009.5 0 20.7 26.2 41.0 107.8 103.3 355.7
03/05 10:50 16.2 65 8.96 9.6 32 44 1009.5 0 20.2 25.6 39.9 104.7 99.7 343.5
03/05 10:40 16.4 70 9.77 10.9 22 30 1009.5 0 22.0 26.9 43.0 113.0 110.1 379.7
03/05 10:30 16 70 9.54 10.5 24 37 1009.6 0 21.5 26.6 42.3 111.1 107.6 371.0
03/05 10:20 16.1 71 9.73 10.8 26 32 1009.7 0 21.9 26.9 43.0 113.0 110.0 379.3
03/05 10:10 14.9 75 9.56 10.5 22 28 1009.9 0 21.6 27.0 43.0 112.9 109.4 377.3
03/05 10:00 14.4 77 9.52 10.4 24 33 1010 0 21.5 27.1 43.1 113.2 109.6 377.8
03/05 09:50 14.4 77 9.52 10.4 24 35 1010.1 0 21.5 27.1 43.1 113.3 109.6 377.9
03/05 09:40 14.3 76 9.34 10.1 28 33 1010.1 0 21.2 26.8 42.4 111.4 107.3 369.8
03/05 09:30 13.7 80 9.47 10.3 19 30 1010 0 21.5 27.2 43.2 113.7 109.9 378.8
03/05 09:20 13.5 80 9.36 10.1 20 24 1010.1 0 21.2 27.1 42.9 112.8 108.7 374.6
03/05 09:10 15 71 9.1 9.8 35 46 1010.2 0 20.6 26.2 41.1 107.9 103.2 355.4
03/05 09:00 14.7 75 9.44 10.3 17 28 1009.8 0 21.3 26.9 42.6 111.9 108.1 372.6
03/05 08:50 13.8 80 9.53 10.4 15 19 1009.8 2.8 21.6 27.3 43.4 114.2 110.6 381.2
03/05 08:40 14 73 8.81 9.2 30 35 1009.9 2.6 20.0 26.0 40.4 106.1 100.6 346.4
03/05 08:30 15.3 65 8.49 8.8 19 26 1009.8 2.2 19.3 25.2 38.5 101.0 94.8 326.2
03/05 08:20 15.5 65 8.59 9 22 28 1009.7 2.2 19.5 25.3 38.8 101.8 95.9 329.9
03/05 08:10 15 67 8.59 8.9 20 26 1009.8 2.2 19.5 25.4 39.0 102.4 96.5 332.0
03/05 08:00 14.4 71 8.78 9.2 19 28 1009.8 2.2 19.9 25.9 40.1 105.2 99.7 343.2
03/05 07:50 14.2 73 8.91 9.4 13 19 1009.7 2.2 20.2 26.1 40.7 106.9 101.7 350.1
03/05 07:40 13.8 74 8.82 9.3 15 17 1009.8 2.2 20.1 26.1 40.5 106.4 101.0 347.7
03/05 07:30 13.7 74 8.76 9.2 17 24 1009.8 2.2 19.9 26.1 40.3 105.9 100.4 345.4
03/05 07:20 13.8 74 8.82 9.3 17 20 1009.6 2.2 20.1 26.1 40.5 106.4 101.0 347.7
03/05 07:10 13.9 72 8.63 8.9 26 30 1009.5 2.2 19.7 25.8 39.7 104.2 98.4 338.4
03/05 07:00 13.9 74 8.87 9.3 15 24 1009.4 2.2 20.2 26.2 40.7 106.8 101.5 349.5
03/05 06:50 13.7 77 9.12 9.7 13 19 1009.5 2.2 20.7 26.6 41.8 109.8 105.1 362.1
03/05 06:40 14.1 78 9.47 10.3 15 17 1009.4 2.2 21.4 27.1 43.0 113.1 109.3 376.7
03/05 06:30 14 78 9.41 10.2 19 32 1009.1 2.2 21.3 27.0 42.8 112.5 108.6 374.3
03/05 06:20 13.8 78 9.29 10 17 20 1009.1 2.2 21.1 26.9 42.4 111.5 107.3 369.6
03/05 06:10 13.6 78 9.18 9.8 22 28 1008.9 2.2 20.8 26.7 42.1 110.5 106.0 365.2
03/05 06:00 13.9 81 9.71 10.7 19 24 1008.9 2.2 22.0 27.5 44.1 116.0 112.8 389.0
03/05 05:50 13.5 83 9.71 10.7 19 24 1008.8 2.2 22.0 27.6 44.3 116.5 113.4 391.0
03/05 05:40 13.7 82 9.71 10.7 22 28 1008.7 2.2 22.0 27.6 44.2 116.2 113.1 389.9
03/05 05:30 14.1 80 9.71 10.7 17 26 1008.7 2.2 22.0 27.5 44.0 115.6 112.5 387.9
03/05 05:20 14.6 75 9.39 10.2 22 26 1008.7 2 21.2 26.8 42.4 111.4 107.5 370.4
03/05 05:10 14.5 75 9.33 10.1 20 24 1008.6 2 21.1 26.7 42.2 110.9 106.8 368.0
03/05 05:00 14.2 77 9.4 10.2 17 22 1008.7 2 21.3 26.9 42.6 112.1 108.2 372.7
03/05 04:50 14.2 77 9.4 10.2 19 24 1008.7 2 21.3 26.9 42.6 112.1 108.2 372.7
03/05 04:40 14 79 9.53 10.4 17 20 1008.7 2 21.6 27.2 43.3 113.8 110.2 379.8
03/05 04:30 13.8 80 9.53 10.4 15 19 1008.7 2 21.6 27.2 43.4 114.1 110.5 380.8
03/05 04:20 13.8 80 9.53 10.4 15 17 1008.6 2 21.6 27.2 43.4 114.1 110.5 380.8
03/05 04:10 14 80 9.65 10.6 17 20 1008.7 2 21.8 27.4 43.8 115.1 111.8 385.6
03/05 04:00 14 82 9.89 11 15 22 1008.7 2 22.4 27.8 44.8 117.8 115.1 397.0
03/05 03:50 14.1 82 9.95 11.1 15 17 1008.7 2 22.5 27.9 45.0 118.3 115.8 399.4
03/05 03:40 14.4 80 9.89 11 26 33 1008.7 2 22.3 27.7 44.5 117.2 114.5 395.0
03/05 03:30 14.8 75 9.5 10.4 17 20 1008.6 1.8 21.5 26.9 42.7 112.3 108.6 374.5
03/05 03:20 14.6 76 9.51 10.4 13 17 1008.6 1.8 21.5 27.0 42.9 112.7 109.1 376.0
03/05 03:10 14.8 76 9.63 10.6 13 17 1008.6 1.8 21.7 27.1 43.2 113.7 110.4 380.6
03/05 03:00 14.8 77 9.75 10.8 11 15 1008.7 1.8 22.0 27.3 43.7 115.0 112.0 386.3
03/05 02:50 14.8 76 9.63 10.6 11 13 1008.7 1.8 21.7 27.1 43.2 113.7 110.4 380.7
03/05 02:40 15 75 9.62 10.6 15 17 1008.7 1.8 21.7 27.0 43.1 113.3 110.0 379.2
03/05 02:30 15 75 9.62 10.6 13 20 1008.7 1.8 21.7 27.0 43.1 113.3 110.0 379.2
03/05 02:20 15 74 9.49 10.4 11 13 1008.8 1.8 21.4 26.8 42.6 111.9 108.2 373.2
03/05 02:10 15 76 9.75 10.8 13 13 1009 1.8 22.0 27.3 43.6 114.8 111.8 385.4
03/05 02:00 15 76 9.75 10.8 13 20 1009 1.8 22.0 27.3 43.6 114.8 111.8 385.4
03/05 01:50 15.1 74 9.55 10.5 13 17 1009.1 1.8 21.6 26.9 42.8 112.5 108.9 375.6
03/05 01:40 15.2 73 9.48 10.4 9 11 1009.1 1.6 21.4 26.8 42.4 111.6 107.9 371.8
03/05 01:30 15.4 72 9.46 10.4 17 26 1009.1 1.6 21.4 26.7 42.2 111.1 107.3 370.0
03/05 01:20 15.1 74 9.55 10.5 15 17 1009.3 1.6 21.6 26.9 42.8 112.5 109.0 375.6
03/05 01:10 15.4 71 9.33 10.2 22 28 1009.2 1.6 21.1 26.5 41.7 109.7 105.6 364.0
03/05 01:00 15.5 70 9.25 10.1 19 26 1009.2 1.6 20.9 26.3 41.4 108.7 104.4 359.8
03/05 00:50 15.5 70 9.25 10.1 17 22 1009.3 1.6 20.9 26.3 41.4 108.7 104.4 359.8
03/05 00:40 15.7 69 9.23 10 19 20 1009.3 1.6 20.8 26.2 41.2 108.2 103.9 358.0
03/05 00:30 15.7 68 9.1 9.8 20 32 1009.4 1.6 20.6 26.0 40.7 106.8 102.2 352.1
03/05 00:20 15.7 68 9.1 9.8 19 20 1009.5 1.6 20.6 26.0 40.7 106.8 102.2 352.1
03/05 00:10 15.7 68 9.1 9.8 17 19 1009.6 1.6 20.6 26.0 40.7 106.8 102.2 352.1
03/05 00:00 15.7 68 9.1 9.8 13 19 1009.8 1.6 20.6 26.0 40.7 106.9 102.2 352.2
02/05 23:50 15.7 69 9.23 10 17 20 1009.8 1.6 20.8 26.2 41.2 108.3 103.9 358.1
02/05 23:40 15.3 73 9.53 10.5 11 15 1009.7 1.6 21.5 26.8 42.6 112.0 108.4 373.9
02/05 23:30 15.6 74 9.84 11 15 20 1009.8 1.6 22.2 27.2 43.7 115.0 112.2 387.0
02/05 23:20 15.2 79 10.25 11.6 15 15 1009.9 1.6 23.1 28.1 45.6 120.1 118.3 408.5
02/05 23:10 15.2 79 10.25 11.6 13 15 1009.9 1.6 23.1 28.1 45.6 120.1 118.3 408.5

Last Refresh: 03-May-2026 15:43:42

Bureau of Meteorology